createdAt,value
2019-02-26T00:00:46.995Z,83.15
2019-02-26T00:03:19.378Z,84.15
2019-02-26T00:05:47.848Z,84.82
2019-02-26T00:08:19.414Z,84.96
2019-02-26T00:10:45.401Z,84.90
2019-02-26T00:13:13.847Z,84.45
2019-02-26T00:15:43.239Z,85.37
2019-02-26T00:18:13.978Z,85.77
2019-02-26T00:20:42.591Z,85.21
2019-02-26T00:23:11.019Z,85.18
2019-02-26T00:25:39.750Z,85.60
2019-02-26T00:28:08.183Z,85.54
2019-02-26T00:30:38.010Z,86.01
2019-02-26T00:33:06.805Z,86.17
2019-02-26T00:35:35.215Z,85.80
2019-02-26T00:38:03.661Z,85.57
2019-02-26T00:40:34.351Z,85.44
2019-02-26T00:43:04.310Z,85.59
2019-02-26T00:45:34.148Z,85.68
2019-02-26T00:48:02.604Z,86.36
2019-02-26T00:50:32.767Z,87.14
2019-02-26T00:53:01.768Z,86.96
2019-02-26T00:55:32.223Z,87.01
2019-02-26T00:58:03.376Z,86.68
2019-02-26T01:00:33.213Z,86.49
2019-02-26T01:03:04.028Z,86.28
2019-02-26T01:05:33.761Z,87.15
2019-02-26T01:08:02.562Z,87.16
2019-02-26T01:10:31.075Z,86.70
2019-02-26T01:13:01.411Z,86.44
2019-02-26T01:15:29.740Z,86.27
2019-02-26T01:17:59.374Z,86.48
2019-02-26T01:20:30.205Z,88.01
2019-02-26T01:22:59.070Z,87.80
2019-02-26T01:25:27.503Z,87.57
2019-02-26T01:27:57.949Z,87.99
2019-02-26T01:30:27.192Z,87.61
2019-02-26T01:32:58.159Z,88.24
2019-02-26T01:35:28.227Z,87.10
2019-02-26T01:37:59.939Z,87.98
2019-02-26T01:40:26.807Z,88.36
2019-02-26T01:42:57.952Z,87.92
2019-02-26T01:45:27.229Z,87.77
2019-02-26T01:47:55.603Z,88.38
2019-02-26T01:50:24.061Z,87.96
2019-02-26T01:52:54.558Z,88.56
2019-02-26T01:55:23.572Z,87.95
2019-02-26T01:57:52.878Z,88.27
2019-02-26T02:00:21.292Z,88.10
2019-02-26T02:02:49.718Z,88.29
2019-02-26T02:05:19.655Z,87.96
2019-02-26T02:07:49.566Z,88.34
2019-02-26T02:10:18.470Z,88.60
2019-02-26T02:12:46.971Z,88.41
2019-02-26T02:15:20.473Z,88.46
2019-02-26T02:17:46.353Z,89.10
2019-02-26T02:20:19.530Z,89.44
2019-02-26T02:22:47.536Z,89.22
2019-02-26T02:25:16.040Z,89.82
2019-02-26T02:27:47.624Z,90.04
2019-02-26T02:30:23.092Z,90.31
2019-02-26T02:32:54.052Z,90.52
2019-02-26T02:35:19.300Z,90.65
2019-02-26T02:37:48.240Z,90.71
2019-02-26T02:40:16.752Z,90.66
2019-02-26T02:42:48.874Z,90.62
2019-02-26T02:45:19.646Z,90.66
2019-02-26T02:47:45.518Z,90.59
2019-02-26T02:50:17.873Z,91.21
2019-02-26T02:52:44.964Z,91.32
2019-02-26T02:55:18.596Z,91.18
2019-02-26T02:57:48.691Z,91.52
2019-02-26T03:00:17.088Z,91.70
2019-02-26T03:02:46.439Z,91.58
2019-02-26T03:05:15.744Z,91.71
2019-02-26T03:07:46.062Z,91.67
2019-02-26T03:10:15.330Z,91.55
2019-02-26T03:12:47.691Z,92.05
2019-02-26T03:15:15.347Z,92.26
2019-02-26T03:17:43.969Z,91.89
2019-02-26T03:20:14.500Z,91.98
2019-02-26T03:22:46.643Z,91.92
2019-02-26T03:25:22.986Z,92.06
2019-02-26T03:27:49.329Z,91.86
2019-02-26T03:30:26.121Z,92.13
2019-02-26T03:32:52.097Z,92.02
2019-02-26T03:35:23.105Z,91.69
2019-02-26T03:37:54.023Z,92.44
2019-02-26T03:40:21.586Z,92.38
2019-02-26T03:42:50.521Z,92.40
2019-02-26T03:45:23.618Z,92.68
2019-02-26T03:47:49.196Z,93.01
2019-02-26T03:50:17.657Z,93.14
2019-02-26T03:52:46.161Z,93.12
2019-02-26T03:55:18.301Z,92.79
2019-02-26T03:57:47.396Z,93.16
2019-02-26T04:00:20.514Z,92.71
2019-02-26T04:02:51.505Z,92.98
2019-02-26T04:05:19.630Z,93.02
2019-02-26T04:07:49.905Z,92.90
2019-02-26T04:10:18.226Z,92.78
2019-02-26T04:12:49.018Z,93.47
2019-02-26T04:15:18.221Z,92.77
2019-02-26T04:17:46.745Z,91.70
2019-02-26T04:20:16.307Z,91.55
2019-02-26T04:22:48.941Z,92.76
2019-02-26T04:25:27.645Z,92.91
2019-02-26T04:28:02.459Z,93.34
2019-02-26T04:30:39.734Z,93.00
2019-02-26T04:33:30.139Z,92.78
2019-02-26T04:36:11.879Z,93.46
2019-02-26T04:38:50.733Z,93.42
2019-02-26T04:41:19.485Z,93.20
2019-02-26T04:44:09.157Z,93.37
2019-02-26T04:46:40.630Z,93.36
2019-02-26T04:49:09.073Z,92.75
2019-02-26T04:51:41.517Z,93.19
2019-02-26T04:54:07.705Z,93.51
2019-02-26T04:56:39.380Z,92.96
2019-02-26T04:59:09.280Z,93.09
2019-02-26T05:01:36.572Z,93.35
2019-02-26T05:04:05.064Z,93.08
2019-02-26T05:06:33.511Z,93.97
2019-02-26T05:09:02.782Z,94.10
2019-02-26T05:11:35.793Z,93.80
2019-02-26T05:14:02.356Z,93.75
2019-02-26T05:16:32.638Z,93.99
2019-02-26T05:19:00.929Z,94.31
2019-02-26T05:21:30.417Z,94.38
2019-02-26T05:24:00.165Z,94.36
2019-02-26T05:26:30.181Z,94.46
2019-02-26T05:28:59.048Z,94.76
2019-02-26T05:31:29.765Z,94.74
2019-02-26T05:33:59.932Z,94.95
2019-02-26T05:36:28.401Z,94.93
2019-02-26T05:38:59.580Z,95.11
2019-02-26T05:41:27.757Z,94.76
2019-02-26T05:43:58.390Z,94.86
2019-02-26T05:46:28.923Z,95.07
2019-02-26T05:48:56.626Z,95.19
2019-02-26T05:51:27.372Z,95.86
2019-02-26T05:53:55.349Z,95.75
2019-02-26T05:56:23.865Z,96.31
2019-02-26T05:58:53.042Z,96.30
2019-02-26T06:01:22.489Z,96.32
2019-02-26T06:03:51.987Z,96.71
2019-02-26T06:06:20.680Z,96.78
2019-02-26T06:08:49.106Z,96.70
2019-02-26T06:11:17.569Z,96.98
2019-02-26T06:13:46.037Z,96.95
2019-02-26T06:16:14.464Z,97.00
2019-02-26T06:18:44.022Z,97.47
2019-02-26T06:21:15.658Z,97.54
2019-02-26T06:23:45.772Z,97.22
2019-02-26T06:26:17.488Z,97.37
2019-02-26T06:28:48.043Z,96.88
2019-02-26T06:31:17.418Z,96.75
2019-02-26T06:33:47.756Z,97.28
2019-02-26T06:36:18.542Z,97.02
2019-02-26T06:38:49.716Z,97.44
2019-02-26T06:41:17.356Z,97.65
2019-02-26T06:43:48.561Z,98.89
2019-02-26T06:46:16.167Z,99.05
2019-02-26T06:48:47.639Z,99.10
2019-02-26T06:51:16.070Z,99.07
2019-02-26T06:53:47.089Z,98.13
2019-02-26T06:56:16.015Z,96.89
2019-02-26T06:58:46.950Z,95.59
2019-02-26T07:01:16.663Z,94.30
2019-02-26T07:03:45.470Z,92.46
2019-02-26T07:06:13.934Z,91.53
2019-02-26T07:08:44.387Z,90.29
2019-02-26T07:11:12.509Z,88.29
2019-02-26T07:13:43.403Z,88.80
2019-02-26T07:16:11.133Z,87.63
2019-02-26T07:18:39.872Z,87.34
2019-02-26T07:21:08.318Z,86.43
2019-02-26T07:23:38.212Z,85.47
2019-02-26T07:26:06.934Z,84.60
2019-02-26T07:28:35.372Z,84.19
2019-02-26T07:31:05.491Z,83.51
2019-02-26T07:33:35.118Z,82.92
2019-02-26T07:36:04.268Z,82.52
2019-02-26T07:38:40.837Z,81.81
2019-02-26T07:41:03.792Z,81.71
2019-02-26T07:43:36.628Z,81.24
2019-02-26T07:46:03.223Z,81.39
2019-02-26T07:48:33.570Z,80.47
2019-02-26T07:51:01.820Z,81.00
2019-02-26T07:53:30.254Z,80.85
2019-02-26T07:55:59.622Z,79.52
2019-02-26T07:58:30.910Z,78.92
2019-02-26T08:00:58.994Z,78.18
2019-02-26T08:03:29.284Z,77.58
2019-02-26T08:05:59.283Z,76.46
2019-02-26T08:08:27.742Z,76.13
2019-02-26T08:10:56.197Z,74.29
2019-02-26T08:13:28.465Z,73.77
2019-02-26T08:15:55.951Z,72.62
2019-02-26T08:18:25.008Z,69.07
2019-02-26T08:20:56.871Z,68.05
2019-02-26T08:23:24.538Z,67.00
2019-02-26T08:25:55.660Z,66.70
2019-02-26T08:28:27.272Z,66.06
2019-02-26T08:30:57.265Z,65.54
2019-02-26T08:33:26.110Z,64.71
2019-02-26T08:35:57.285Z,65.62
2019-02-26T08:38:29.378Z,65.92
2019-02-26T08:40:55.936Z,66.14
2019-02-26T08:43:24.371Z,65.70
2019-02-26T08:45:52.825Z,65.32
2019-02-26T08:48:22.336Z,64.23
2019-02-26T08:50:51.492Z,62.93
2019-02-26T08:53:21.797Z,61.98
2019-02-26T08:55:51.556Z,60.84
2019-02-26T08:58:20.594Z,58.87
2019-02-26T09:00:49.109Z,56.98
2019-02-26T09:03:18.601Z,56.51
2019-02-26T09:05:49.419Z,55.85
2019-02-26T09:08:18.182Z,55.23
2019-02-26T09:10:48.585Z,55.90
2019-02-26T09:13:18.737Z,55.20
2019-02-26T09:15:47.156Z,55.41
2019-02-26T09:18:15.655Z,52.77
2019-02-26T09:20:44.126Z,52.78
2019-02-26T09:23:16.326Z,52.45
2019-02-26T09:25:42.812Z,52.70
2019-02-26T09:28:11.246Z,52.45
2019-02-26T09:30:40.840Z,53.63
2019-02-26T09:33:11.071Z,54.30
2019-02-26T09:35:39.815Z,54.35
2019-02-26T09:38:08.274Z,55.07
2019-02-26T09:40:36.779Z,55.15
2019-02-26T09:43:06.121Z,56.55
2019-02-26T09:45:34.837Z,54.48
2019-02-26T09:48:03.347Z,55.69
2019-02-26T09:50:32.044Z,56.19
2019-02-26T09:53:00.489Z,55.27
2019-02-26T09:55:29.295Z,55.20
2019-02-26T09:57:58.105Z,55.64
2019-02-26T10:00:29.348Z,54.72
2019-02-26T10:02:56.838Z,55.97
2019-02-26T10:05:25.616Z,55.24
2019-02-26T10:07:56.854Z,54.72
2019-02-26T10:10:27.583Z,57.12
2019-02-26T10:12:57.320Z,57.10
2019-02-26T10:15:25.203Z,55.07
2019-02-26T10:17:56.205Z,54.61
2019-02-26T10:20:31.021Z,54.26
2019-02-26T10:23:00.627Z,53.46
2019-02-26T10:25:31.957Z,52.16
2019-02-26T10:28:03.047Z,51.49
2019-02-26T10:30:33.296Z,51.90
2019-02-26T10:33:02.769Z,52.61
2019-02-26T10:35:35.637Z,54.99
2019-02-26T10:38:05.180Z,53.47
2019-02-26T10:40:35.599Z,52.75
2019-02-26T10:43:07.056Z,52.02
2019-02-26T10:45:38.582Z,53.39
2019-02-26T10:48:05.790Z,51.92
2019-02-26T10:50:34.225Z,50.90
2019-02-26T10:53:10.329Z,51.57
2019-02-26T10:55:39.303Z,51.17
2019-02-26T10:58:09.991Z,51.09
2019-02-26T11:00:38.004Z,51.75
2019-02-26T11:03:08.938Z,47.73
2019-02-26T11:05:39.550Z,48.49
2019-02-26T11:08:09.262Z,47.78
2019-02-26T11:10:41.402Z,49.32
2019-02-26T11:13:08.084Z,47.84
2019-02-26T11:15:36.645Z,48.42
2019-02-26T11:18:05.103Z,50.43
2019-02-26T11:20:34.376Z,49.60
2019-02-26T11:23:05.899Z,50.67
2019-02-26T11:25:33.255Z,49.95
2019-02-26T11:28:02.534Z,51.22
2019-02-26T11:30:32.310Z,52.44
2019-02-26T11:33:10.121Z,50.21
2019-02-26T11:35:36.678Z,49.77
2019-02-26T11:38:05.205Z,49.06
2019-02-26T11:40:34.230Z,47.07
2019-02-26T11:43:11.166Z,44.15
2019-02-26T11:45:34.697Z,39.49
2019-02-26T11:48:04.336Z,40.98
2019-02-26T11:50:33.363Z,40.55
2019-02-26T11:53:01.798Z,42.68
2019-02-26T11:55:32.419Z,40.09
2019-02-26T11:58:00.441Z,40.12
2019-02-26T12:00:38.832Z,42.73
2019-02-26T12:03:06.244Z,43.58
2019-02-26T12:05:38.293Z,45.91
2019-02-26T12:08:06.512Z,46.77
2019-02-26T12:10:37.219Z,44.08
2019-02-26T12:13:05.222Z,45.37
2019-02-26T12:15:36.283Z,44.60
2019-02-26T12:18:04.200Z,44.97
2019-02-26T12:20:32.834Z,46.44
2019-02-26T12:23:01.836Z,45.58
2019-02-26T12:25:30.295Z,48.35
2019-02-26T12:28:00.234Z,46.29
2019-02-26T12:30:28.914Z,46.53
2019-02-26T12:32:57.381Z,46.59
2019-02-26T12:35:25.847Z,46.42
2019-02-26T12:37:56.640Z,47.29
2019-02-26T12:40:25.490Z,47.17
2019-02-26T12:42:54.328Z,47.34
2019-02-26T12:45:26.108Z,47.08
2019-02-26T12:47:55.293Z,45.83
2019-02-26T12:50:29.038Z,45.66
2019-02-26T12:52:57.026Z,45.16
2019-02-26T12:55:29.639Z,45.69
2019-02-26T12:57:59.196Z,47.50
2019-02-26T13:00:26.482Z,47.12
2019-02-26T13:02:58.758Z,44.80
2019-02-26T13:05:27.403Z,45.19
2019-02-26T13:07:55.839Z,44.80
2019-02-26T13:10:25.944Z,39.03
2019-02-26T13:12:59.323Z,36.08
2019-02-26T13:15:24.674Z,35.79
2019-02-26T13:17:54.605Z,37.46
2019-02-26T13:20:25.060Z,37.82
2019-02-26T13:23:00.511Z,38.84
2019-02-26T13:25:26.769Z,38.17
2019-02-26T13:27:54.047Z,39.38
2019-02-26T13:30:26.522Z,39.35
2019-02-26T13:32:58.029Z,38.01
2019-02-26T13:35:25.351Z,38.72
2019-02-26T13:38:02.550Z,39.01
2019-02-26T13:40:38.288Z,39.25
2019-02-26T13:45:30.172Z,39.89
2019-02-26T13:48:01.277Z,40.79
2019-02-26T13:50:35.669Z,40.48
2019-02-26T13:53:05.514Z,40.08
2019-02-26T13:55:33.989Z,39.67
2019-02-26T13:58:11.433Z,39.91
2019-02-26T14:00:32.688Z,40.44
2019-02-26T14:03:01.121Z,41.00
2019-02-26T14:05:37.910Z,40.97
2019-02-26T14:08:01.218Z,41.03
2019-02-26T14:10:29.661Z,41.19
2019-02-26T14:12:58.096Z,39.33
2019-02-26T14:15:28.666Z,39.47
2019-02-26T14:17:57.208Z,39.68
2019-02-26T14:20:25.694Z,40.09
2019-02-26T14:22:54.187Z,41.02
2019-02-26T14:25:22.650Z,41.04
2019-02-26T14:27:51.067Z,41.94
2019-02-26T14:30:21.799Z,41.69
2019-02-26T14:32:50.530Z,41.52
2019-02-26T14:35:18.944Z,40.58
2019-02-26T14:37:47.440Z,40.14
2019-02-26T14:40:21.047Z,40.26
2019-02-26T14:42:49.918Z,40.47
2019-02-26T14:45:24.064Z,38.51
2019-02-26T14:47:52.506Z,39.58
2019-02-26T14:50:21.993Z,39.42
2019-02-26T14:52:50.501Z,37.65
2019-02-26T14:55:19.091Z,37.01
2019-02-26T14:57:47.517Z,37.17
2019-02-26T15:00:27.431Z,37.83
2019-02-26T15:02:56.396Z,37.88
2019-02-26T15:05:25.015Z,38.13
2019-02-26T15:07:53.498Z,37.85
2019-02-26T15:10:21.981Z,37.47
2019-02-26T15:12:50.557Z,38.17
2019-02-26T15:15:19.663Z,37.38
2019-02-26T15:17:48.097Z,36.56
2019-02-26T15:20:21.647Z,35.62
2019-02-26T15:22:50.114Z,35.33
2019-02-26T15:25:23.554Z,34.87
2019-02-26T15:27:51.989Z,34.57
2019-02-26T15:30:21.866Z,34.38
2019-02-26T15:32:50.425Z,34.78
2019-02-26T15:35:19.080Z,34.58
2019-02-26T15:37:47.536Z,34.59
2019-02-26T15:40:20.740Z,34.44
2019-02-26T15:42:52.311Z,34.07
2019-02-26T15:45:24.433Z,33.96
2019-02-26T15:47:53.113Z,33.94
2019-02-26T15:50:22.412Z,34.36
2019-02-26T15:52:53.020Z,34.39
2019-02-26T15:55:23.203Z,34.43
2019-02-26T15:57:51.730Z,34.23
2019-02-26T16:00:23.515Z,34.27
2019-02-26T16:02:53.280Z,34.17
2019-02-26T16:05:24.669Z,34.53
2019-02-26T16:07:53.099Z,34.29
2019-02-26T16:10:22.739Z,34.26
2019-02-26T16:12:51.424Z,34.49
2019-02-26T16:15:19.904Z,34.42
2019-02-26T16:17:48.355Z,34.40
2019-02-26T16:20:22.837Z,34.42
2019-02-26T16:22:54.992Z,34.38
2019-02-26T16:25:25.046Z,34.73
2019-02-26T16:27:54.415Z,35.16
2019-02-26T16:30:24.856Z,34.85
2019-02-26T16:32:53.929Z,35.01
2019-02-26T16:35:24.654Z,35.24
2019-02-26T16:37:52.606Z,35.26
2019-02-26T16:40:21.098Z,35.76
2019-02-26T16:42:49.740Z,35.39
2019-02-26T16:45:23.605Z,35.53
2019-02-26T16:47:52.027Z,37.45
2019-02-26T16:50:26.524Z,36.27
2019-02-26T16:52:55.033Z,36.26
2019-02-26T16:55:23.525Z,37.78
2019-02-26T16:57:52.025Z,38.20
2019-02-26T17:00:28.605Z,38.82
2019-02-26T17:02:59.824Z,38.64
2019-02-26T17:05:27.375Z,38.28
2019-02-26T17:07:56.384Z,38.76
2019-02-26T17:10:29.054Z,40.56
2019-02-26T17:12:56.600Z,41.57
2019-02-26T17:15:38.003Z,41.94
2019-02-26T17:18:09.604Z,43.57
2019-02-26T17:20:36.864Z,42.82
2019-02-26T17:23:05.340Z,42.81
2019-02-26T17:25:33.798Z,43.56
2019-02-26T17:28:02.228Z,43.29
2019-02-26T17:30:30.689Z,43.98
2019-02-26T17:32:59.139Z,43.80
2019-02-26T17:35:29.523Z,43.79
2019-02-26T17:37:57.828Z,44.66
2019-02-26T17:40:29.021Z,45.46
2019-02-26T17:42:57.938Z,45.19
2019-02-26T17:45:32.018Z,46.16
2019-02-26T17:48:00.445Z,47.27
2019-02-26T17:50:34.999Z,47.29
2019-02-26T17:53:03.559Z,46.91
2019-02-26T17:55:32.061Z,46.39
2019-02-26T17:58:00.834Z,46.07
2019-02-26T18:00:31.242Z,46.69
2019-02-26T18:02:59.844Z,48.33
2019-02-26T18:05:28.376Z,48.15
2019-02-26T18:07:56.941Z,47.99
2019-02-26T18:10:27.235Z,47.78
2019-02-26T18:12:56.124Z,49.27
2019-02-26T18:15:24.988Z,48.30
2019-02-26T18:17:53.446Z,48.19
2019-02-26T18:20:23.215Z,49.30
2019-02-26T18:22:51.678Z,51.72
2019-02-26T18:25:21.798Z,50.37
2019-02-26T18:27:50.363Z,50.13
2019-02-26T18:30:23.768Z,50.38
2019-02-26T18:32:55.646Z,52.83
2019-02-26T18:35:22.929Z,52.52
2019-02-26T18:37:51.547Z,52.05
2019-02-26T18:40:20.472Z,52.69
2019-02-26T18:42:49.264Z,52.96
2019-02-26T18:45:29.162Z,53.84
2019-02-26T18:47:58.149Z,54.29
2019-02-26T18:50:28.710Z,55.39
2019-02-26T18:52:58.275Z,55.81
2019-02-26T18:55:28.346Z,55.71
2019-02-26T18:57:57.508Z,55.61
2019-02-26T19:00:28.381Z,56.52
2019-02-26T19:02:56.799Z,57.67
2019-02-26T19:05:25.256Z,57.41
2019-02-26T19:07:53.895Z,58.08
2019-02-26T19:10:23.085Z,57.99
2019-02-26T19:12:51.513Z,59.39
2019-02-26T19:15:22.991Z,59.61
2019-02-26T19:17:53.637Z,61.03
2019-02-26T19:20:27.910Z,60.81
2019-02-26T19:22:58.541Z,60.81
2019-02-26T19:25:26.498Z,61.00
2019-02-26T19:27:54.974Z,61.64
2019-02-26T19:30:24.291Z,62.37
2019-02-26T19:32:52.694Z,62.79
2019-02-26T19:35:21.158Z,62.61
2019-02-26T19:37:55.114Z,62.53
2019-02-26T19:40:30.398Z,62.77
2019-02-26T19:42:59.624Z,63.48
2019-02-26T19:45:28.027Z,63.99
2019-02-26T19:47:56.612Z,64.32
2019-02-26T19:50:25.152Z,63.56
2019-02-26T19:52:56.997Z,64.02
2019-02-26T19:55:26.833Z,64.37
2019-02-26T19:57:55.341Z,63.89
2019-02-26T20:00:23.814Z,64.24
2019-02-26T20:02:52.396Z,63.90
2019-02-26T20:05:20.797Z,64.85
2019-02-26T20:07:49.482Z,66.18
2019-02-26T20:10:18.867Z,66.11
2019-02-26T20:12:47.318Z,66.94
2019-02-26T20:15:15.905Z,67.07
2019-02-26T20:17:44.393Z,67.48
2019-02-26T20:20:16.789Z,67.40
2019-02-26T20:22:45.581Z,67.05
2019-02-26T20:25:19.029Z,67.30
2019-02-26T20:27:47.607Z,67.55
2019-02-26T20:30:22.908Z,67.68
2019-02-26T20:32:51.950Z,68.04
2019-02-26T20:35:20.360Z,68.27
2019-02-26T20:37:48.808Z,68.54
2019-02-26T20:40:25.059Z,68.59
2019-02-26T20:42:53.486Z,69.00
2019-02-26T20:45:22.894Z,68.37
2019-02-26T20:47:51.308Z,68.41
2019-02-26T20:50:22.434Z,69.03
2019-02-26T20:52:50.850Z,70.41
2019-02-26T20:55:24.710Z,69.38
2019-02-26T20:57:53.273Z,68.93
2019-02-26T21:00:24.901Z,69.33
2019-02-26T21:02:51.977Z,69.19
2019-02-26T21:05:20.536Z,69.43
2019-02-26T21:07:49.867Z,70.64
2019-02-26T21:10:19.932Z,71.46
2019-02-26T21:12:51.479Z,70.00
2019-02-26T21:15:21.881Z,69.68
2019-02-26T21:18:01.353Z,69.88
2019-02-26T21:20:29.817Z,70.33
2019-02-26T21:22:59.046Z,70.11
2019-02-26T21:25:29.044Z,71.81
2019-02-26T21:28:00.711Z,71.34
2019-02-26T21:30:29.312Z,71.82
2019-02-26T21:32:58.652Z,71.63
2019-02-26T21:35:28.917Z,72.01
2019-02-26T21:37:57.434Z,71.95
2019-02-26T21:40:25.945Z,72.37
2019-02-26T21:42:54.323Z,72.33
2019-02-26T21:45:22.768Z,71.89
2019-02-26T21:47:51.363Z,71.81
2019-02-26T21:50:22.317Z,71.91
2019-02-26T21:52:59.854Z,72.04
2019-02-26T21:55:22.533Z,72.49
2019-02-26T21:57:54.526Z,72.37
2019-02-26T22:00:29.563Z,72.66
2019-02-26T22:02:59.493Z,72.98
2019-02-26T22:05:30.357Z,73.85
2019-02-26T22:07:59.033Z,73.34
2019-02-26T22:10:31.811Z,73.21
2019-02-26T22:13:00.660Z,73.31
2019-02-26T22:15:32.601Z,73.79
2019-02-26T22:18:02.556Z,74.42
2019-02-26T22:20:36.121Z,75.03
2019-02-26T22:23:01.210Z,75.35
2019-02-26T22:25:31.166Z,74.55
2019-02-26T22:28:02.535Z,74.56
2019-02-26T22:30:32.692Z,74.99
2019-02-26T22:33:01.115Z,74.68
2019-02-26T22:35:29.556Z,75.22
2019-02-26T22:37:58.011Z,75.42
2019-02-26T22:40:28.911Z,75.53
2019-02-26T22:42:56.652Z,75.90
2019-02-26T22:45:27.654Z,75.86
2019-02-26T22:47:55.208Z,75.29
2019-02-26T22:50:24.840Z,75.54
2019-02-26T22:52:53.800Z,76.08
2019-02-26T22:55:22.266Z,76.47
2019-02-26T22:57:50.697Z,76.71
2019-02-26T23:00:50.942Z,77.28
2019-02-26T23:03:19.463Z,77.44
2019-02-26T23:05:48.011Z,76.31
2019-02-26T23:08:17.063Z,76.48
2019-02-26T23:10:45.964Z,76.75
2019-02-26T23:13:16.541Z,77.10
2019-02-26T23:15:45.902Z,76.88
2019-02-26T23:18:15.927Z,76.93
2019-02-26T23:20:44.898Z,76.74
2019-02-26T23:23:13.483Z,76.69
2019-02-26T23:25:42.779Z,77.01
2019-02-26T23:28:12.236Z,78.26
2019-02-26T23:30:41.435Z,78.18
2019-02-26T23:33:09.872Z,78.02
2019-02-26T23:35:38.768Z,77.63
2019-02-26T23:38:08.371Z,77.14
2019-02-26T23:40:37.500Z,77.11
2019-02-26T23:43:06.413Z,77.86
2019-02-26T23:45:34.907Z,77.15
2019-02-26T23:48:07.784Z,77.57
2019-02-26T23:50:33.524Z,77.29
2019-02-26T23:53:01.982Z,77.62
2019-02-26T23:55:30.525Z,78.32
2019-02-26T23:57:58.905Z,77.96
